createdAt,value
2019-03-27T00:00:20.131Z,14.20
2019-03-27T00:02:49.738Z,14.10
2019-03-27T00:05:19.123Z,13.90
2019-03-27T00:07:48.554Z,13.90
2019-03-27T00:10:18.533Z,13.50
2019-03-27T00:12:48.774Z,13.20
2019-03-27T00:15:18.765Z,13.20
2019-03-27T00:17:48.166Z,13.00
2019-03-27T00:20:17.692Z,12.80
2019-03-27T00:22:47.285Z,12.60
2019-03-27T00:25:16.851Z,12.50
2019-03-27T00:27:46.840Z,12.50
2019-03-27T00:30:16.337Z,12.60
2019-03-27T00:32:45.658Z,12.70
2019-03-27T00:35:15.057Z,12.80
2019-03-27T00:37:44.465Z,12.80
2019-03-27T00:40:14.614Z,12.80
2019-03-27T00:42:43.808Z,12.80
2019-03-27T00:45:25.862Z,12.90
2019-03-27T00:47:43.180Z,12.80
2019-03-27T00:50:12.611Z,12.70
2019-03-27T00:52:42.452Z,12.70
2019-03-27T00:55:12.518Z,12.70
2019-03-27T00:57:42.087Z,12.60
2019-03-27T01:00:30.598Z,12.70
2019-03-27T01:02:59.805Z,12.60
2019-03-27T01:05:29.340Z,12.50
2019-03-27T01:07:58.890Z,12.50
2019-03-27T01:10:28.516Z,12.50
2019-03-27T01:12:58.110Z,12.40
2019-03-27T01:15:39.142Z,12.40
2019-03-27T01:17:57.485Z,12.30
2019-03-27T01:20:26.921Z,12.20
2019-03-27T01:22:56.911Z,12.20
2019-03-27T01:25:26.110Z,12.10
2019-03-27T01:27:55.010Z,12.10
2019-03-27T01:30:25.313Z,12.00
2019-03-27T01:32:54.908Z,12.00
2019-03-27T01:35:24.094Z,12.00
2019-03-27T01:37:53.619Z,11.90
2019-03-27T01:40:23.084Z,11.80
2019-03-27T01:42:53.779Z,11.70
2019-03-27T01:45:23.607Z,11.70
2019-03-27T01:47:53.482Z,11.70
2019-03-27T01:50:22.223Z,11.70
2019-03-27T01:52:51.492Z,11.60
2019-03-27T01:55:20.606Z,11.60
2019-03-27T01:57:50.312Z,11.50
2019-03-27T02:00:19.897Z,11.50
2019-03-27T02:02:49.610Z,11.40
2019-03-27T02:05:18.846Z,11.30
2019-03-27T02:07:49.047Z,11.10
2019-03-27T02:10:18.573Z,11.10
2019-03-27T02:12:48.195Z,11.10
2019-03-27T02:15:17.662Z,11.00
2019-03-27T02:17:48.597Z,10.90
2019-03-27T02:20:17.863Z,10.90
2019-03-27T02:22:47.388Z,10.80
2019-03-27T02:25:16.729Z,10.80
2019-03-27T02:27:46.371Z,10.90
2019-03-27T02:30:16.164Z,10.70
2019-03-27T02:32:46.329Z,10.50
2019-03-27T02:35:15.941Z,10.50
2019-03-27T02:37:45.289Z,10.40
2019-03-27T02:40:15.491Z,10.30
2019-03-27T02:42:45.597Z,10.20
2019-03-27T02:45:15.010Z,10.20
2019-03-27T02:47:45.415Z,10.10
2019-03-27T02:50:15.026Z,10.10
2019-03-27T02:52:44.321Z,10.10
2019-03-27T02:55:14.086Z,10.00
2019-03-27T02:57:44.721Z,9.90
2019-03-27T03:00:15.656Z,9.80
2019-03-27T03:02:44.956Z,9.80
2019-03-27T03:05:14.909Z,9.70
2019-03-27T03:07:44.117Z,9.70
2019-03-27T03:10:14.008Z,9.60
2019-03-27T03:12:43.568Z,9.60
2019-03-27T03:15:13.269Z,9.50
2019-03-27T03:17:45.547Z,9.50
2019-03-27T03:20:16.179Z,9.40
2019-03-27T03:22:46.159Z,9.40
2019-03-27T03:25:15.940Z,9.40
2019-03-27T03:27:46.351Z,9.30
2019-03-27T03:30:16.874Z,9.30
2019-03-27T03:32:47.326Z,9.20
2019-03-27T03:35:19.948Z,9.20
2019-03-27T03:37:56.977Z,9.20
2019-03-27T03:40:26.439Z,9.20
2019-03-27T03:45:36.220Z,9.00
2019-03-27T03:48:12.271Z,9.00
2019-03-27T03:50:45.110Z,9.00
2019-03-27T03:53:15.076Z,9.00
2019-03-27T03:55:50.791Z,8.90
2019-03-27T03:58:20.074Z,8.80
2019-03-27T04:00:49.836Z,8.80
2019-03-27T04:03:19.696Z,8.80
2019-03-27T04:05:49.084Z,8.80
2019-03-27T04:08:18.445Z,8.80
2019-03-27T04:10:47.809Z,8.70
2019-03-27T04:13:17.499Z,8.70
2019-03-27T04:15:46.858Z,8.60
2019-03-27T04:18:17.653Z,8.60
2019-03-27T04:20:48.556Z,8.60
2019-03-27T04:23:17.916Z,8.50
2019-03-27T04:26:08.282Z,8.50
2019-03-27T04:28:17.430Z,8.50
2019-03-27T04:30:47.013Z,8.50
2019-03-27T04:33:16.597Z,8.50
2019-03-27T04:35:46.238Z,8.40
2019-03-27T04:38:28.704Z,8.40
2019-03-27T04:40:59.727Z,8.30
2019-03-27T04:43:29.543Z,8.30
2019-03-27T04:45:59.092Z,8.30
2019-03-27T04:48:30.202Z,8.30
2019-03-27T04:51:00.737Z,8.20
2019-03-27T04:53:30.389Z,8.20
2019-03-27T04:55:59.926Z,8.10
2019-03-27T04:58:29.541Z,8.10
2019-03-27T05:01:00.136Z,8.20
2019-03-27T05:03:29.735Z,8.10
2019-03-27T05:05:59.258Z,8.10
2019-03-27T05:08:28.865Z,8.10
2019-03-27T05:10:58.503Z,8.00
2019-03-27T05:13:28.061Z,8.00
2019-03-27T05:15:57.713Z,8.00
2019-03-27T05:18:26.884Z,8.00
2019-03-27T05:20:56.640Z,7.90
2019-03-27T05:23:26.311Z,7.90
2019-03-27T05:25:57.447Z,7.90
2019-03-27T05:28:27.111Z,7.90
2019-03-27T05:30:57.288Z,7.80
2019-03-27T05:33:26.851Z,7.80
2019-03-27T05:35:56.525Z,7.80
2019-03-27T05:38:25.852Z,7.70
2019-03-27T05:40:55.943Z,7.70
2019-03-27T05:43:25.838Z,7.70
2019-03-27T05:45:55.552Z,7.70
2019-03-27T05:48:25.162Z,7.70
2019-03-27T05:50:54.572Z,7.70
2019-03-27T05:53:23.905Z,7.60
2019-03-27T05:55:53.688Z,7.60
2019-03-27T05:58:22.985Z,7.50
2019-03-27T06:00:52.521Z,7.50
2019-03-27T06:03:22.373Z,7.50
2019-03-27T06:05:52.720Z,7.50
2019-03-27T06:08:22.044Z,7.50
2019-03-27T06:10:51.264Z,7.50
2019-03-27T06:13:20.461Z,7.50
2019-03-27T06:15:50.601Z,7.40
2019-03-27T06:18:21.053Z,7.40
2019-03-27T06:20:50.890Z,7.40
2019-03-27T06:23:20.567Z,7.40
2019-03-27T06:25:50.091Z,7.30
2019-03-27T06:28:19.867Z,7.30
2019-03-27T06:30:50.008Z,7.30
2019-03-27T06:33:19.469Z,7.20
2019-03-27T06:35:48.916Z,7.20
2019-03-27T06:38:18.579Z,7.20
2019-03-27T06:40:48.119Z,7.10
2019-03-27T06:43:17.709Z,7.10
2019-03-27T06:45:48.880Z,7.10
2019-03-27T06:48:26.223Z,7.10
2019-03-27T06:50:48.425Z,7.10
2019-03-27T06:53:17.856Z,7.10
2019-03-27T06:55:47.056Z,7.00
2019-03-27T06:58:16.494Z,7.00
2019-03-27T07:00:45.807Z,7.00
2019-03-27T07:03:15.059Z,6.90
2019-03-27T07:05:44.807Z,6.90
2019-03-27T07:08:14.258Z,6.90
2019-03-27T07:10:43.632Z,6.80
2019-03-27T07:13:12.649Z,6.80
2019-03-27T07:15:42.429Z,6.80
2019-03-27T07:18:11.798Z,6.80
2019-03-27T07:20:41.311Z,6.70
2019-03-27T07:23:10.912Z,6.70
2019-03-27T07:25:41.217Z,6.70
2019-03-27T07:28:10.560Z,6.70
2019-03-27T07:30:40.085Z,6.70
2019-03-27T07:33:09.364Z,6.70
2019-03-27T07:35:38.852Z,6.70
2019-03-27T07:38:08.827Z,6.70
2019-03-27T07:40:38.241Z,6.70
2019-03-27T07:43:07.738Z,6.60
2019-03-27T07:45:37.215Z,6.60
2019-03-27T07:48:06.534Z,6.60
2019-03-27T07:50:36.021Z,6.60
2019-03-27T07:53:06.168Z,6.50
2019-03-27T07:55:35.798Z,6.50
2019-03-27T07:58:06.049Z,6.40
2019-03-27T08:00:36.349Z,6.40
2019-03-27T08:03:05.752Z,6.40
2019-03-27T08:05:34.774Z,6.40
2019-03-27T08:08:04.609Z,6.30
2019-03-27T08:10:34.496Z,6.30
2019-03-27T08:13:04.297Z,6.30
2019-03-27T08:15:34.810Z,6.30
2019-03-27T08:18:05.217Z,6.30
2019-03-27T08:20:34.948Z,6.20
2019-03-27T08:23:05.704Z,6.20
2019-03-27T08:25:35.054Z,6.20
2019-03-27T08:28:04.679Z,6.20
2019-03-27T08:30:34.258Z,6.10
2019-03-27T08:33:03.625Z,6.10
2019-03-27T08:35:33.556Z,6.10
2019-03-27T08:38:03.810Z,6.00
2019-03-27T08:40:33.301Z,6.00
2019-03-27T08:43:02.658Z,6.00
2019-03-27T08:45:32.025Z,6.00
2019-03-27T08:48:01.713Z,6.00
2019-03-27T08:50:31.420Z,6.00
2019-03-27T08:53:00.883Z,6.00
2019-03-27T08:55:31.110Z,6.00
2019-03-27T08:58:00.910Z,5.90
2019-03-27T09:00:53.723Z,6.00
2019-03-27T09:03:23.053Z,5.90
2019-03-27T09:05:52.667Z,5.90
2019-03-27T09:08:22.275Z,5.90
2019-03-27T09:10:51.938Z,5.90
2019-03-27T09:13:21.408Z,5.90
2019-03-27T09:15:51.211Z,5.90
2019-03-27T09:18:21.355Z,5.90
2019-03-27T09:20:50.620Z,5.90
2019-03-27T09:23:20.371Z,5.90
2019-03-27T09:25:49.971Z,5.90
2019-03-27T09:28:20.199Z,5.90
2019-03-27T09:30:49.601Z,5.90
2019-03-27T09:33:18.733Z,5.90
2019-03-27T09:35:48.925Z,5.80
2019-03-27T09:38:18.550Z,5.80
2019-03-27T09:40:48.161Z,5.80
2019-03-27T09:43:17.471Z,5.80
2019-03-27T09:45:46.967Z,5.70
2019-03-27T09:48:16.489Z,5.70
2019-03-27T09:50:45.633Z,5.70
2019-03-27T09:53:15.193Z,5.60
2019-03-27T09:55:44.698Z,5.70
2019-03-27T09:58:14.193Z,5.60
2019-03-27T10:01:01.027Z,5.60
2019-03-27T10:03:30.438Z,5.60
2019-03-27T10:06:00.146Z,5.70
2019-03-27T10:08:29.568Z,5.70
2019-03-27T10:10:58.914Z,5.70
2019-03-27T10:13:28.290Z,5.70
2019-03-27T10:15:58.027Z,5.70
2019-03-27T10:18:27.386Z,5.70
2019-03-27T10:20:57.446Z,5.60
2019-03-27T10:23:27.056Z,5.60
2019-03-27T10:25:56.708Z,5.60
2019-03-27T10:28:26.973Z,5.60
2019-03-27T10:30:56.458Z,5.60
2019-03-27T10:33:25.927Z,5.60
2019-03-27T10:35:55.131Z,5.50
2019-03-27T10:38:24.640Z,5.50
2019-03-27T10:40:54.323Z,5.50
2019-03-27T10:43:23.846Z,5.40
2019-03-27T10:45:53.180Z,5.40
2019-03-27T10:48:22.558Z,5.40
2019-03-27T10:50:52.025Z,5.30
2019-03-27T10:53:21.445Z,5.30
2019-03-27T10:55:51.092Z,5.30
2019-03-27T10:58:20.577Z,5.30
2019-03-27T11:00:49.954Z,5.20
2019-03-27T11:03:19.320Z,5.20
2019-03-27T11:05:48.864Z,5.10
2019-03-27T11:08:18.441Z,5.10
2019-03-27T11:10:48.036Z,5.00
2019-03-27T11:13:17.264Z,4.90
2019-03-27T11:15:46.678Z,4.70
2019-03-27T11:18:16.355Z,4.60
2019-03-27T11:20:45.814Z,4.50
2019-03-27T11:23:15.162Z,4.50
2019-03-27T11:25:44.668Z,4.50
2019-03-27T11:28:13.891Z,4.40
2019-03-27T11:30:43.650Z,4.50
2019-03-27T11:33:13.420Z,4.50
2019-03-27T11:35:42.962Z,4.60
2019-03-27T11:38:12.590Z,4.70
2019-03-27T11:40:41.880Z,4.70
2019-03-27T11:43:11.474Z,4.80
2019-03-27T11:45:40.910Z,4.90
2019-03-27T11:48:10.277Z,4.90
2019-03-27T11:50:45.269Z,4.90
2019-03-27T11:53:10.138Z,4.90
2019-03-27T11:55:39.851Z,4.90
2019-03-27T11:58:09.282Z,4.90
2019-03-27T12:00:38.690Z,4.80
2019-03-27T12:03:08.215Z,4.90
2019-03-27T12:05:37.547Z,4.90
2019-03-27T12:08:06.630Z,4.90
2019-03-27T12:10:36.153Z,4.90
2019-03-27T12:13:05.646Z,4.80
2019-03-27T12:15:37.114Z,4.90
2019-03-27T12:18:07.011Z,4.80
2019-03-27T12:20:37.352Z,4.80
2019-03-27T12:23:06.685Z,4.80
2019-03-27T12:25:36.347Z,4.80
2019-03-27T12:28:05.734Z,4.80
2019-03-27T12:30:35.059Z,4.80
2019-03-27T12:33:04.623Z,4.80
2019-03-27T12:35:34.177Z,4.80
2019-03-27T12:38:04.460Z,4.90
2019-03-27T12:40:33.301Z,4.90
2019-03-27T12:43:02.627Z,4.80
2019-03-27T12:45:32.109Z,4.90
2019-03-27T12:48:02.405Z,4.90
2019-03-27T12:50:31.854Z,4.90
2019-03-27T12:53:01.114Z,4.90
2019-03-27T12:55:30.736Z,4.80
2019-03-27T12:58:00.804Z,4.80
2019-03-27T13:00:30.306Z,4.70
2019-03-27T13:02:59.501Z,4.80
2019-03-27T13:05:29.217Z,4.80
2019-03-27T13:07:58.453Z,4.80
2019-03-27T13:10:28.070Z,4.80
2019-03-27T13:12:57.467Z,4.80
2019-03-27T13:15:26.946Z,4.90
2019-03-27T13:17:56.462Z,4.80
2019-03-27T13:20:25.533Z,4.90
2019-03-27T13:22:54.899Z,4.80
2019-03-27T13:25:24.494Z,4.80
2019-03-27T13:27:53.802Z,4.80
2019-03-27T13:30:23.263Z,4.80
2019-03-27T13:32:52.606Z,4.70
2019-03-27T13:35:22.501Z,4.70
2019-03-27T13:37:51.795Z,4.70
2019-03-27T13:40:21.200Z,4.70
2019-03-27T13:42:50.706Z,4.80
2019-03-27T13:45:20.089Z,4.80
2019-03-27T13:47:49.606Z,4.80
2019-03-27T13:50:19.130Z,4.70
2019-03-27T13:52:49.134Z,4.70
2019-03-27T13:55:19.089Z,4.70
2019-03-27T13:57:48.244Z,4.70
2019-03-27T14:00:18.216Z,4.70
2019-03-27T14:02:48.155Z,4.70
2019-03-27T14:05:17.664Z,4.70
2019-03-27T14:07:47.281Z,4.70
2019-03-27T14:10:16.959Z,4.70
2019-03-27T14:12:46.350Z,4.70
2019-03-27T14:15:15.774Z,4.80
2019-03-27T14:17:45.104Z,4.80
2019-03-27T14:20:15.033Z,4.80
2019-03-27T14:22:44.367Z,4.80
2019-03-27T14:25:14.350Z,4.80
2019-03-27T14:27:45.430Z,4.80
2019-03-27T14:30:13.683Z,4.80
2019-03-27T14:32:43.319Z,4.80
2019-03-27T14:35:12.709Z,4.90
2019-03-27T14:37:42.170Z,4.90
2019-03-27T14:40:11.573Z,4.90
2019-03-27T14:42:41.049Z,5.00
2019-03-27T14:45:10.653Z,5.00
2019-03-27T14:47:40.260Z,5.10
2019-03-27T14:50:10.152Z,5.20
2019-03-27T14:52:39.543Z,5.30
2019-03-27T14:55:08.986Z,5.30
2019-03-27T14:57:38.470Z,5.30
2019-03-27T15:00:08.071Z,5.40
2019-03-27T15:02:37.526Z,5.60
2019-03-27T15:05:07.919Z,5.60
2019-03-27T15:07:38.361Z,5.50
2019-03-27T15:10:09.094Z,5.50
2019-03-27T15:12:38.567Z,5.60
2019-03-27T15:15:08.189Z,6.10
2019-03-27T15:17:37.748Z,7.10
2019-03-27T15:20:07.674Z,7.60
2019-03-27T15:22:37.226Z,7.70
2019-03-27T15:25:07.006Z,7.90
2019-03-27T15:27:36.847Z,9.00
2019-03-27T15:30:06.854Z,10.70
2019-03-27T15:32:36.353Z,12.50
2019-03-27T15:35:06.583Z,13.30
2019-03-27T15:37:35.926Z,13.50
2019-03-27T15:40:06.251Z,13.90
2019-03-27T15:42:35.760Z,14.70
2019-03-27T15:45:06.313Z,14.30
2019-03-27T15:47:36.553Z,14.10
2019-03-27T15:50:06.261Z,14.10
2019-03-27T15:52:37.008Z,14.80
2019-03-27T15:55:06.255Z,16.60
2019-03-27T15:57:36.350Z,21.40
2019-03-27T16:00:06.566Z,21.30
2019-03-27T16:02:35.935Z,24.10
2019-03-27T16:05:06.045Z,26.30
2019-03-27T16:07:35.363Z,27.90
2019-03-27T16:10:05.462Z,27.70
2019-03-27T16:12:36.512Z,29.20
2019-03-27T16:15:05.898Z,29.10
2019-03-27T16:17:35.855Z,30.90
2019-03-27T16:20:05.876Z,30.80
2019-03-27T16:22:35.130Z,30.90
2019-03-27T16:25:04.550Z,32.00
2019-03-27T16:27:34.175Z,32.00
2019-03-27T16:30:03.857Z,31.30
2019-03-27T16:32:33.708Z,32.90
2019-03-27T16:35:03.282Z,32.90
2019-03-27T16:37:32.746Z,33.20
2019-03-27T16:40:02.254Z,33.40
2019-03-27T16:42:32.721Z,32.70
2019-03-27T16:45:02.206Z,30.20
2019-03-27T16:47:31.960Z,29.00
2019-03-27T16:50:02.852Z,30.10
2019-03-27T16:52:32.271Z,30.60
2019-03-27T16:55:01.778Z,29.30
2019-03-27T16:57:32.156Z,27.30
2019-03-27T17:00:02.211Z,27.20
2019-03-27T17:02:32.591Z,30.00
2019-03-27T17:05:02.265Z,30.00
2019-03-27T17:07:31.748Z,31.50
2019-03-27T17:10:01.464Z,32.30
2019-03-27T17:12:31.546Z,33.90
2019-03-27T17:15:00.835Z,34.80
2019-03-27T17:17:30.339Z,36.60
2019-03-27T17:19:59.720Z,36.60
2019-03-27T17:22:28.984Z,37.60
2019-03-27T17:24:58.449Z,38.80
2019-03-27T17:27:28.162Z,39.00
2019-03-27T17:29:57.434Z,39.70
2019-03-27T17:32:26.969Z,40.40
2019-03-27T17:34:56.516Z,40.90
2019-03-27T17:37:26.444Z,40.60
2019-03-27T17:39:56.002Z,40.60
2019-03-27T17:42:25.247Z,41.20
2019-03-27T17:44:55.762Z,41.40
2019-03-27T17:47:25.882Z,41.40
2019-03-27T17:49:55.287Z,41.50
2019-03-27T17:52:25.764Z,41.70
2019-03-27T17:54:55.217Z,41.70
2019-03-27T17:57:24.646Z,42.40
2019-03-27T17:59:54.290Z,42.40
2019-03-27T18:02:23.768Z,42.80
2019-03-27T18:04:53.143Z,42.40
2019-03-27T18:07:22.482Z,42.80
2019-03-27T18:09:51.993Z,43.00
2019-03-27T18:12:21.880Z,43.70
2019-03-27T18:14:51.487Z,43.80
2019-03-27T18:17:20.903Z,44.00
2019-03-27T18:19:50.304Z,43.60
2019-03-27T18:22:19.630Z,43.50
2019-03-27T18:24:48.982Z,42.80
2019-03-27T18:27:18.661Z,43.20
2019-03-27T18:29:48.336Z,43.60
2019-03-27T18:32:19.714Z,43.90
2019-03-27T18:34:52.819Z,43.90
2019-03-27T18:37:23.814Z,42.60
2019-03-27T18:39:54.535Z,40.60
2019-03-27T18:42:24.594Z,37.70
2019-03-27T18:44:54.029Z,37.60
2019-03-27T18:47:25.218Z,34.80
2019-03-27T18:49:54.643Z,34.60
2019-03-27T18:52:24.045Z,33.00
2019-03-27T18:54:53.294Z,33.70
2019-03-27T18:57:22.583Z,34.10
2019-03-27T18:59:51.865Z,33.50
2019-03-27T19:02:21.139Z,32.00
2019-03-27T19:04:51.298Z,31.00
2019-03-27T19:07:21.651Z,29.50
2019-03-27T19:09:51.177Z,29.50
2019-03-27T19:12:20.551Z,28.30
2019-03-27T19:14:50.124Z,27.30
2019-03-27T19:17:19.489Z,27.00
2019-03-27T19:19:48.991Z,26.10
2019-03-27T19:22:18.284Z,25.40
2019-03-27T19:24:47.695Z,26.00
2019-03-27T19:27:17.245Z,28.10
2019-03-27T19:29:46.668Z,29.90
2019-03-27T19:32:16.827Z,30.20
2019-03-27T19:34:46.176Z,30.20
2019-03-27T19:37:15.644Z,30.00
2019-03-27T19:39:44.976Z,29.40
2019-03-27T19:42:14.529Z,30.20
2019-03-27T19:44:44.177Z,30.30
2019-03-27T19:47:21.668Z,30.20
2019-03-27T19:49:51.895Z,31.10
2019-03-27T19:52:21.153Z,33.00
2019-03-27T19:54:50.549Z,34.90
2019-03-27T19:57:20.268Z,36.20
2019-03-27T19:59:50.107Z,36.90
2019-03-27T20:02:19.641Z,36.70
2019-03-27T20:04:49.117Z,35.20
2019-03-27T20:07:21.335Z,34.60
2019-03-27T20:09:50.838Z,34.30
2019-03-27T20:12:20.407Z,33.70
2019-03-27T20:14:49.950Z,33.10
2019-03-27T20:17:19.294Z,31.40
2019-03-27T20:19:48.725Z,30.00
2019-03-27T20:22:18.368Z,28.60
2019-03-27T20:24:47.788Z,26.80
2019-03-27T20:27:17.385Z,25.90
2019-03-27T20:29:46.944Z,25.30
2019-03-27T20:32:16.297Z,24.70
2019-03-27T20:34:45.981Z,23.60
2019-03-27T20:37:15.450Z,23.20
2019-03-27T20:39:47.044Z,22.50
2019-03-27T20:42:17.646Z,22.10
2019-03-27T20:44:47.088Z,21.80
2019-03-27T20:47:16.585Z,21.50
2019-03-27T20:49:46.215Z,20.90
2019-03-27T20:52:16.016Z,20.70
2019-03-27T20:54:54.921Z,21.10
2019-03-27T20:57:16.132Z,21.10
2019-03-27T20:59:45.335Z,21.50
2019-03-27T21:02:14.666Z,21.50
2019-03-27T21:04:44.341Z,21.30
2019-03-27T21:07:13.749Z,21.10
2019-03-27T21:09:43.035Z,20.60
2019-03-27T21:12:12.210Z,20.70
2019-03-27T21:14:41.836Z,21.00
2019-03-27T21:17:11.481Z,21.00
2019-03-27T21:19:40.654Z,20.80
2019-03-27T21:22:10.130Z,21.00
2019-03-27T21:24:39.355Z,20.70
2019-03-27T21:27:08.879Z,20.50
2019-03-27T21:29:38.344Z,20.20
2019-03-27T21:32:07.794Z,20.10
2019-03-27T21:34:37.165Z,20.20
2019-03-27T21:37:06.408Z,20.10
2019-03-27T21:39:35.912Z,20.20
2019-03-27T21:42:05.231Z,20.20
2019-03-27T21:44:34.701Z,20.30
2019-03-27T21:47:05.075Z,20.40
2019-03-27T21:49:34.858Z,20.30
2019-03-27T21:52:05.070Z,20.00
2019-03-27T21:54:35.701Z,20.10
2019-03-27T21:57:05.066Z,20.10
2019-03-27T21:59:34.659Z,20.10
2019-03-27T22:02:04.413Z,20.20
2019-03-27T22:04:33.908Z,20.30
2019-03-27T22:07:03.508Z,20.20
2019-03-27T22:09:33.149Z,20.00
2019-03-27T22:12:02.956Z,19.90
2019-03-27T22:14:32.461Z,19.90
2019-03-27T22:17:01.922Z,19.90
2019-03-27T22:19:31.227Z,19.90
2019-03-27T22:22:00.785Z,19.60
2019-03-27T22:24:30.023Z,19.40
2019-03-27T22:26:59.425Z,18.80
2019-03-27T22:29:29.189Z,18.80
2019-03-27T22:31:58.454Z,18.70
2019-03-27T22:34:27.870Z,18.70
2019-03-27T22:36:57.935Z,19.10
2019-03-27T22:39:27.434Z,19.10
2019-03-27T22:41:56.619Z,19.10
2019-03-27T22:44:26.899Z,19.10
2019-03-27T22:46:56.477Z,19.00
2019-03-27T22:49:25.982Z,19.20
2019-03-27T22:51:55.434Z,19.30
2019-03-27T22:54:24.516Z,19.40
2019-03-27T22:56:54.095Z,19.30
2019-03-27T22:59:23.609Z,19.30
2019-03-27T23:01:53.041Z,19.20
2019-03-27T23:04:22.591Z,19.20
2019-03-27T23:06:52.197Z,19.20
2019-03-27T23:09:21.506Z,18.90
2019-03-27T23:11:51.135Z,18.80
2019-03-27T23:14:20.705Z,18.90
2019-03-27T23:16:49.885Z,18.50
2019-03-27T23:19:19.919Z,18.30
2019-03-27T23:21:49.545Z,18.30
2019-03-27T23:24:19.071Z,18.30
2019-03-27T23:26:48.188Z,18.40
2019-03-27T23:29:17.609Z,18.40
2019-03-27T23:31:46.809Z,18.50
2019-03-27T23:34:16.098Z,18.50
2019-03-27T23:36:45.514Z,18.60
2019-03-27T23:39:15.892Z,18.50
2019-03-27T23:41:45.270Z,18.40
2019-03-27T23:44:14.800Z,18.40
2019-03-27T23:46:44.064Z,18.40
2019-03-27T23:49:13.681Z,18.40
2019-03-27T23:51:43.086Z,18.20
2019-03-27T23:54:12.427Z,18.20
2019-03-27T23:56:41.521Z,18.20
2019-03-27T23:59:11.071Z,18.30
